createdAt,value
2018-12-11T00:00:06.442Z,1006.13
2018-12-11T00:01:06.429Z,1006.23
2018-12-11T00:02:06.443Z,1006.19
2018-12-11T00:03:06.419Z,1006.16
2018-12-11T00:04:06.396Z,1006.34
2018-12-11T00:05:06.386Z,1006.12
2018-12-11T00:06:06.377Z,1006.22
2018-12-11T00:07:06.364Z,1006.26
2018-12-11T00:08:06.368Z,1006.24
2018-12-11T00:09:06.351Z,1006.26
2018-12-11T00:10:06.331Z,1006.22
2018-12-11T00:11:06.356Z,1006.18
2018-12-11T00:12:06.308Z,1006.30
2018-12-11T00:13:06.299Z,1006.40
2018-12-11T00:14:06.289Z,1006.47
2018-12-11T00:15:06.280Z,1006.40
2018-12-11T00:16:06.271Z,1006.39
2018-12-11T00:17:06.268Z,1006.21
2018-12-11T00:18:06.244Z,1006.20
2018-12-11T00:19:06.232Z,1006.26
2018-12-11T00:20:06.221Z,1006.20
2018-12-11T00:21:06.224Z,1006.19
2018-12-11T00:22:06.204Z,1006.18
2018-12-11T00:23:06.198Z,1006.35
2018-12-11T00:24:06.188Z,1006.35
2018-12-11T00:25:06.167Z,1006.32
2018-12-11T00:26:06.156Z,1006.37
2018-12-11T00:27:06.148Z,1006.37
2018-12-11T00:28:06.137Z,1006.27
2018-12-11T00:29:06.142Z,1006.37
2018-12-11T00:30:06.131Z,1006.36
2018-12-11T00:31:06.101Z,1006.41
2018-12-11T00:32:06.089Z,1006.46
2018-12-11T00:33:06.078Z,1006.39
2018-12-11T00:34:06.080Z,1006.39
2018-12-11T00:35:06.055Z,1006.37
2018-12-11T00:36:06.088Z,1006.35
2018-12-11T00:37:06.034Z,1006.40
2018-12-11T00:38:06.026Z,1006.37
2018-12-11T00:39:06.013Z,1006.48
2018-12-11T00:40:06.004Z,1006.33
2018-12-11T00:41:05.991Z,1006.46
2018-12-11T00:42:06.021Z,1006.28
2018-12-11T00:43:05.970Z,1006.22
2018-12-11T00:44:05.957Z,1006.23
2018-12-11T00:45:05.948Z,1006.25
2018-12-11T00:46:05.984Z,1006.21
2018-12-11T00:47:05.930Z,1006.31
2018-12-11T00:48:05.935Z,1006.19
2018-12-11T00:49:05.901Z,1006.17
2018-12-11T00:50:05.890Z,1006.22
2018-12-11T00:51:05.883Z,1006.20
2018-12-11T00:52:05.869Z,1006.41
2018-12-11T00:53:05.872Z,1006.21
2018-12-11T00:54:05.854Z,1006.17
2018-12-11T00:55:05.837Z,1006.37
2018-12-11T00:56:05.826Z,1006.26
2018-12-11T00:57:05.814Z,1006.24
2018-12-11T00:58:05.825Z,1006.16
2018-12-11T00:59:05.792Z,1006.17
2018-12-11T01:00:05.787Z,1006.21
2018-12-11T01:01:05.772Z,1006.16
2018-12-11T01:02:05.761Z,1006.25
2018-12-11T01:03:05.749Z,1006.24
2018-12-11T01:04:05.752Z,1006.31
2018-12-11T01:05:05.726Z,1006.29
2018-12-11T01:06:05.724Z,1006.29
2018-12-11T01:07:05.717Z,1006.28
2018-12-11T01:08:05.693Z,1006.34
2018-12-11T01:09:05.683Z,1006.35
2018-12-11T01:10:05.697Z,1006.39
2018-12-11T01:11:05.672Z,1006.39
2018-12-11T01:12:05.657Z,1006.30
2018-12-11T01:13:05.638Z,1006.40
2018-12-11T01:14:05.627Z,1006.30
2018-12-11T01:15:05.617Z,1006.28
2018-12-11T01:16:05.618Z,1006.35
2018-12-11T01:17:05.633Z,1006.41
2018-12-11T01:18:05.619Z,1006.47
2018-12-11T01:19:05.586Z,1006.34
2018-12-11T01:20:05.561Z,1006.34
2018-12-11T01:21:05.550Z,1006.42
2018-12-11T01:22:05.541Z,1006.42
2018-12-11T01:23:05.541Z,1006.42
2018-12-11T01:24:05.531Z,1006.39
2018-12-11T01:25:05.510Z,1006.45
2018-12-11T01:26:05.496Z,1006.41
2018-12-11T01:27:05.485Z,1006.41
2018-12-11T01:28:05.485Z,1006.42
2018-12-11T01:29:05.486Z,1006.46
2018-12-11T01:30:05.451Z,1006.45
2018-12-11T01:31:05.447Z,1006.44
2018-12-11T01:32:05.429Z,1006.55
2018-12-11T01:33:05.419Z,1006.62
2018-12-11T01:34:05.408Z,1006.69
2018-12-11T01:35:05.421Z,1006.62
2018-12-11T01:36:05.384Z,1006.66
2018-12-11T01:37:05.382Z,1006.60
2018-12-11T01:38:05.362Z,1006.62
2018-12-11T02:24:30.932Z,1006.64
2018-12-11T02:24:53.628Z,1006.64
2018-12-11T02:25:53.599Z,1006.63
2018-12-11T02:26:53.588Z,1006.65
2018-12-11T02:27:53.590Z,1006.69
2018-12-11T02:28:53.593Z,1006.60
2018-12-11T02:29:53.556Z,1006.61
2018-12-11T02:30:53.550Z,1006.68
2018-12-11T02:31:53.534Z,1006.62
2018-12-11T02:32:53.522Z,1006.61
2018-12-11T02:33:53.510Z,1006.69
2018-12-11T02:34:53.525Z,1006.57
2018-12-11T02:35:53.492Z,1006.67
2018-12-11T02:36:53.477Z,1006.68
2018-12-11T02:37:53.470Z,1006.74
2018-12-11T02:38:53.455Z,1006.64
2018-12-11T02:39:53.448Z,1006.62
2018-12-11T02:40:53.474Z,1006.72
2018-12-11T02:41:53.431Z,1006.65
2018-12-11T02:42:53.410Z,1006.72
2018-12-11T02:43:53.401Z,1006.67
2018-12-11T02:44:53.395Z,1006.71
2018-12-11T02:45:53.380Z,1006.57
2018-12-11T02:46:53.394Z,1006.65
2018-12-11T02:47:53.362Z,1006.55
2018-12-11T02:48:53.356Z,1006.79
2018-12-11T02:49:53.333Z,1006.64
2018-12-11T02:50:53.323Z,1006.69
2018-12-11T02:51:53.314Z,1006.64
2018-12-11T02:52:53.321Z,1006.67
2018-12-11T02:53:53.294Z,1006.66
2018-12-11T02:54:53.281Z,1006.67
2018-12-11T02:55:53.268Z,1006.63
2018-12-11T02:56:53.257Z,1006.52
2018-12-11T02:57:53.287Z,1006.65
2018-12-11T02:58:53.236Z,1006.70
2018-12-11T02:59:53.230Z,1006.62
2018-12-11T03:00:53.215Z,1006.57
2018-12-11T03:01:53.221Z,1006.56
2018-12-11T03:02:53.190Z,1006.60
2018-12-11T03:03:53.182Z,1006.56
2018-12-11T03:04:53.168Z,1006.63
2018-12-11T03:05:53.181Z,1006.50
2018-12-11T03:06:53.167Z,1006.51
2018-12-11T03:07:53.136Z,1006.50
2018-12-11T03:08:53.124Z,1006.50
2018-12-11T03:09:53.114Z,1006.48
2018-12-11T03:10:53.146Z,1006.42
2018-12-11T03:11:53.096Z,1006.47
2018-12-11T03:12:53.083Z,1006.44
2018-12-11T03:13:53.070Z,1006.42
2018-12-11T03:14:53.082Z,1006.37
2018-12-11T03:15:53.059Z,1006.38
2018-12-11T03:16:53.084Z,1006.42
2018-12-11T03:17:53.027Z,1006.36
2018-12-11T03:18:53.015Z,1006.36
2018-12-11T03:19:53.004Z,1006.41
2018-12-11T03:20:52.999Z,1006.46
2018-12-11T03:21:53.006Z,1006.44
2018-12-11T03:22:52.976Z,1006.48
2018-12-11T03:23:52.958Z,1006.46
2018-12-11T03:24:52.972Z,1006.46
2018-12-11T03:25:52.935Z,1006.50
2018-12-11T03:26:52.926Z,1006.49
2018-12-11T03:27:52.915Z,1006.43
2018-12-11T03:28:52.903Z,1006.52
2018-12-11T03:29:52.924Z,1006.57
2018-12-11T03:30:52.895Z,1006.45
2018-12-11T03:31:52.893Z,1006.59
2018-12-11T03:32:52.859Z,1006.60
2018-12-11T03:33:52.856Z,1006.61
2018-12-11T03:34:52.838Z,1006.58
2018-12-11T03:35:52.877Z,1006.77
2018-12-11T03:36:52.815Z,1006.58
2018-12-11T03:37:52.803Z,1006.65
2018-12-11T03:38:52.826Z,1006.64
2018-12-11T03:39:52.780Z,1006.56
2018-12-11T03:40:52.771Z,1006.58
2018-12-11T03:41:52.759Z,1006.60
2018-12-11T03:42:52.751Z,1006.65
2018-12-11T03:43:52.738Z,1006.60
2018-12-11T03:44:52.754Z,1006.73
2018-12-11T03:45:52.729Z,1006.61
2018-12-11T03:46:52.703Z,1006.65
2018-12-11T03:47:52.723Z,1006.67
2018-12-11T03:48:52.724Z,1006.65
2018-12-11T03:49:52.669Z,1006.63
2018-12-11T03:50:52.659Z,1006.58
2018-12-11T03:51:52.660Z,1006.57
2018-12-11T03:52:52.637Z,1006.60
2018-12-11T03:53:52.626Z,1006.63
2018-12-11T03:54:52.632Z,1006.67
2018-12-11T03:55:52.603Z,1006.65
2018-12-11T03:56:52.619Z,1006.71
2018-12-11T03:57:52.579Z,1006.69
2018-12-11T03:58:52.570Z,1006.74
2018-12-11T03:59:52.557Z,1006.67
2018-12-11T04:00:52.546Z,1006.80
2018-12-11T04:01:52.627Z,1006.76
2018-12-11T04:02:52.532Z,1006.70
2018-12-11T04:03:52.517Z,1006.68
2018-12-11T04:04:52.503Z,1006.76
2018-12-11T04:05:52.492Z,1006.78
2018-12-11T04:06:52.481Z,1006.82
2018-12-11T04:07:52.494Z,1006.67
2018-12-11T04:08:52.463Z,1006.75
2018-12-11T04:09:52.455Z,1006.79
2018-12-11T04:10:52.438Z,1006.81
2018-12-11T04:11:52.426Z,1006.80
2018-12-11T04:12:52.455Z,1006.81
2018-12-11T04:13:52.402Z,1006.93
2018-12-11T04:14:52.391Z,1006.96
2018-12-11T04:15:52.389Z,1006.93
2018-12-11T04:16:52.370Z,1006.92
2018-12-11T04:17:52.358Z,1006.93
2018-12-11T04:18:52.367Z,1006.88
2018-12-11T04:19:52.335Z,1007.02
2018-12-11T04:20:52.326Z,1006.92
2018-12-11T04:21:52.318Z,1006.96
2018-12-11T04:22:52.351Z,1006.86
2018-12-11T04:23:52.292Z,1006.94
2018-12-11T04:24:52.282Z,1006.96
2018-12-11T04:25:52.271Z,1006.89
2018-12-11T04:26:52.258Z,1006.96
2018-12-11T04:27:52.256Z,1007.03
2018-12-11T04:28:52.285Z,1006.93
2018-12-11T04:29:52.228Z,1006.97
2018-12-11T04:30:52.214Z,1006.92
2018-12-11T04:31:52.203Z,1007.04
2018-12-11T04:32:52.190Z,1007.08
2018-12-11T04:33:52.180Z,1007.07
2018-12-11T04:34:52.202Z,1007.07
2018-12-11T04:35:52.161Z,1007.03
2018-12-11T04:36:52.167Z,1007.06
2018-12-11T04:37:52.136Z,1007.09
2018-12-11T04:38:52.125Z,1007.07
2018-12-11T04:39:52.115Z,1007.11
2018-12-11T04:40:52.109Z,1007.06
2018-12-11T04:41:52.134Z,1007.01
2018-12-11T04:42:52.093Z,1006.97
2018-12-11T04:43:52.070Z,1007.07
2018-12-11T04:44:52.060Z,1007.07
2018-12-11T04:45:52.048Z,1007.04
2018-12-11T04:46:52.046Z,1007.03
2018-12-11T04:47:52.044Z,1007.26
2018-12-11T04:48:52.013Z,1007.08
2018-12-11T04:49:52.006Z,1007.14
2018-12-11T04:50:51.991Z,1007.11
2018-12-11T04:51:51.981Z,1007.15
2018-12-11T04:52:51.995Z,1007.11
2018-12-11T04:53:51.960Z,1007.09
2018-12-11T04:54:51.967Z,1007.11
2018-12-11T04:55:51.937Z,1007.13
2018-12-11T04:56:51.926Z,1007.18
2018-12-11T04:57:51.952Z,1007.17
2018-12-11T04:58:51.910Z,1007.16
2018-12-11T04:59:51.892Z,1007.18
2018-12-11T05:00:51.878Z,1007.25
2018-12-11T05:01:51.870Z,1007.25
2018-12-11T05:02:51.858Z,1007.22
2018-12-11T05:03:51.875Z,1007.12
2018-12-11T05:04:51.842Z,1007.18
2018-12-11T05:05:51.826Z,1007.28
2018-12-11T05:06:51.814Z,1007.24
2018-12-11T05:07:51.804Z,1007.25
2018-12-11T05:08:51.793Z,1007.18
2018-12-11T05:09:51.803Z,1007.25
2018-12-11T05:10:51.779Z,1007.30
2018-12-11T05:11:51.759Z,1007.35
2018-12-11T05:12:51.748Z,1007.37
2018-12-11T05:13:51.761Z,1007.36
2018-12-11T05:14:51.733Z,1007.38
2018-12-11T05:15:51.714Z,1007.34
2018-12-11T05:16:51.708Z,1007.38
2018-12-11T05:17:51.692Z,1007.48
2018-12-11T05:18:51.704Z,1007.49
2018-12-11T05:19:51.670Z,1007.44
2018-12-11T05:20:51.656Z,1007.41
2018-12-11T05:21:51.647Z,1007.45
2018-12-11T05:22:51.641Z,1007.39
2018-12-11T05:23:51.655Z,1007.44
2018-12-11T05:24:51.633Z,1007.44
2018-12-11T05:25:51.602Z,1007.45
2018-12-11T05:26:51.592Z,1007.49
2018-12-11T05:27:51.580Z,1007.47
2018-12-11T05:28:51.569Z,1007.52
2018-12-11T05:29:51.580Z,1007.50
2018-12-11T05:30:51.546Z,1007.48
2018-12-11T05:31:51.537Z,1007.64
2018-12-11T05:32:51.523Z,1007.44
2018-12-11T05:33:51.534Z,1007.46
2018-12-11T05:34:51.503Z,1007.37
2018-12-11T05:35:51.525Z,1007.54
2018-12-11T05:36:51.487Z,1007.52
2018-12-11T05:37:51.469Z,1007.50
2018-12-11T05:38:51.456Z,1007.49
2018-12-11T05:39:51.447Z,1007.42
2018-12-11T05:40:51.436Z,1007.48
2018-12-11T05:41:51.446Z,1007.45
2018-12-11T05:42:51.417Z,1007.49
2018-12-11T05:43:51.413Z,1007.52
2018-12-11T05:44:51.392Z,1007.45
2018-12-11T05:45:51.381Z,1007.43
2018-12-11T05:46:51.369Z,1007.46
2018-12-11T05:47:51.376Z,1007.49
2018-12-11T05:48:51.346Z,1007.50
2018-12-11T05:49:51.340Z,1007.54
2018-12-11T05:50:51.328Z,1007.49
2018-12-11T05:51:51.314Z,1007.56
2018-12-11T05:52:51.323Z,1007.55
2018-12-11T05:53:51.294Z,1007.51
2018-12-11T05:54:51.281Z,1007.53
2018-12-11T05:55:51.275Z,1007.55
2018-12-11T05:56:51.293Z,1007.50
2018-12-11T05:57:51.247Z,1007.53
2018-12-11T05:58:51.236Z,1007.62
2018-12-11T05:59:51.222Z,1007.57
2018-12-11T06:00:51.213Z,1007.57
2018-12-11T06:01:51.213Z,1007.60
2018-12-11T06:02:51.210Z,1007.61
2018-12-11T06:03:51.180Z,1007.62
2018-12-11T06:04:51.168Z,1007.63
2018-12-11T06:05:51.157Z,1007.61
2018-12-11T06:06:51.180Z,1007.55
2018-12-11T06:07:51.139Z,1007.61
2018-12-11T06:08:51.125Z,1007.60
2018-12-11T06:09:51.113Z,1007.61
2018-12-11T06:10:51.102Z,1007.55
2018-12-11T06:11:51.090Z,1007.55
2018-12-11T06:12:51.110Z,1007.63
2018-12-11T06:13:51.080Z,1007.62
2018-12-11T06:14:51.057Z,1007.71
2018-12-11T06:15:51.047Z,1007.60
2018-12-11T06:16:51.036Z,1007.59
2018-12-11T06:17:51.024Z,1007.66
2018-12-11T06:18:51.032Z,1007.62
2018-12-11T06:19:51.007Z,1007.70
2018-12-11T06:20:50.995Z,1007.65
2018-12-11T06:21:50.979Z,1007.70
2018-12-11T06:22:50.987Z,1007.72
2018-12-11T06:23:50.957Z,1007.77
2018-12-11T06:24:50.948Z,1007.74
2018-12-11T06:25:50.941Z,1007.69
2018-12-11T06:26:50.925Z,1007.76
2018-12-11T06:27:50.933Z,1007.72
2018-12-11T06:28:50.903Z,1007.77
2018-12-11T06:29:50.888Z,1007.75
2018-12-11T06:30:50.880Z,1007.82
2018-12-11T06:31:50.876Z,1007.81
2018-12-11T06:32:50.895Z,1007.84
2018-12-11T06:33:50.846Z,1007.82
2018-12-11T06:34:50.834Z,1007.86
2018-12-11T06:35:50.824Z,1007.89
2018-12-11T06:36:50.813Z,1007.91
2018-12-11T06:37:50.802Z,1007.91
2018-12-11T06:38:50.814Z,1007.85
2018-12-11T06:39:50.778Z,1007.87
2018-12-11T06:40:50.767Z,1007.95
2018-12-11T06:41:50.757Z,1007.90
2018-12-11T06:42:50.744Z,1007.95
2018-12-11T06:43:50.753Z,1007.97
2018-12-11T06:44:50.725Z,1007.90
2018-12-11T06:45:50.711Z,1007.91
2018-12-11T06:46:52.023Z,1007.94
2018-12-11T06:47:50.690Z,1007.96
2018-12-11T06:48:50.696Z,1008.00
2018-12-11T06:49:50.666Z,1008.02
2018-12-11T06:50:50.662Z,1007.95
2018-12-11T06:51:50.651Z,1008.02
2018-12-11T06:52:50.635Z,1007.96
2018-12-11T06:53:50.643Z,1008.04
2018-12-11T06:54:50.614Z,1008.04
2018-12-11T06:55:50.601Z,1008.11
2018-12-11T06:56:50.589Z,1008.12
2018-12-11T06:57:50.582Z,1008.11
2018-12-11T06:58:50.619Z,1008.13
2018-12-11T06:59:50.559Z,1008.12
2018-12-11T07:00:50.546Z,1008.12
2018-12-11T07:01:50.533Z,1008.19
2018-12-11T07:02:50.521Z,1008.20
2018-12-11T07:03:50.510Z,1008.22
2018-12-11T07:04:50.538Z,1008.25
2018-12-11T07:05:50.488Z,1008.24
2018-12-11T07:06:50.477Z,1008.29
2018-12-11T07:07:50.466Z,1008.28
2018-12-11T07:08:50.455Z,1008.27
2018-12-11T07:09:50.443Z,1008.28
2018-12-11T07:10:50.453Z,1008.28
2018-12-11T07:11:50.423Z,1008.23
2018-12-11T07:12:50.429Z,1008.25
2018-12-11T07:13:50.422Z,1008.25
2018-12-11T07:14:50.399Z,1008.26
2018-12-11T07:15:50.413Z,1008.28
2018-12-11T07:16:50.387Z,1008.31
2018-12-11T07:17:50.400Z,1008.34
2018-12-11T07:18:50.363Z,1008.34
2018-12-11T07:19:50.367Z,1008.32
2018-12-11T07:20:50.323Z,1008.36
2018-12-11T07:21:50.314Z,1008.33
2018-12-11T07:22:50.311Z,1008.35
2018-12-11T07:23:50.289Z,1008.33
2018-12-11T07:24:50.337Z,1008.31
2018-12-11T07:25:50.266Z,1008.30
2018-12-11T07:26:50.260Z,1008.26
2018-12-11T07:27:50.249Z,1008.29
2018-12-11T07:28:50.267Z,1008.31
2018-12-11T07:29:50.257Z,1008.25
2018-12-11T07:30:50.226Z,1008.28
2018-12-11T07:31:50.234Z,1008.30
2018-12-11T07:32:50.204Z,1008.26
2018-12-11T07:33:50.953Z,1008.24
2018-12-11T07:34:50.179Z,1008.29
2018-12-11T07:35:50.155Z,1008.30
2018-12-11T07:36:50.162Z,1008.25
2018-12-11T07:37:50.130Z,1008.27
2018-12-11T07:38:50.148Z,1008.21
2018-12-11T07:39:50.111Z,1008.21
2018-12-11T07:40:50.102Z,1008.36
2018-12-11T07:41:50.106Z,1008.29
2018-12-11T07:42:50.096Z,1008.33
2018-12-11T07:43:50.088Z,1008.32
2018-12-11T07:44:50.056Z,1008.31
2018-12-11T07:45:50.044Z,1008.34
2018-12-11T07:46:50.052Z,1008.33
2018-12-11T07:47:50.039Z,1008.35
2018-12-11T07:48:50.011Z,1008.36
2018-12-11T07:49:50.008Z,1008.38
2018-12-11T07:50:50.007Z,1008.41
2018-12-11T07:51:49.987Z,1008.40
2018-12-11T07:52:49.991Z,1008.36
2018-12-11T07:53:49.967Z,1008.42
2018-12-11T07:54:49.954Z,1008.43
2018-12-11T07:55:49.933Z,1008.43
2018-12-11T07:56:49.923Z,1008.49
2018-12-11T07:57:49.972Z,1008.49
2018-12-11T07:58:49.898Z,1008.46
2018-12-11T07:59:49.895Z,1008.46
2018-12-11T08:00:49.898Z,1008.34
2018-12-11T08:01:49.865Z,1008.47
2018-12-11T08:02:49.855Z,1008.49
2018-12-11T08:03:49.862Z,1008.52
2018-12-11T08:04:49.831Z,1008.49
2018-12-11T08:05:49.843Z,1008.44
2018-12-11T08:06:49.816Z,1008.50
2018-12-11T08:07:49.799Z,1008.51
2018-12-11T08:08:49.811Z,1008.39
2018-12-11T08:09:49.800Z,1008.48
2018-12-11T08:10:49.765Z,1008.50
2018-12-11T08:11:49.780Z,1008.45
2018-12-11T08:12:49.749Z,1008.52
2018-12-11T08:13:49.760Z,1008.50
2018-12-11T08:14:49.719Z,1008.52
2018-12-11T08:15:49.713Z,1008.53
2018-12-11T08:16:49.698Z,1008.58
2018-12-11T08:17:49.687Z,1008.52
2018-12-11T08:18:49.700Z,1008.51
2018-12-11T08:19:49.667Z,1008.51
2018-12-11T08:20:49.650Z,1008.41
2018-12-11T08:21:49.644Z,1008.47
2018-12-11T08:22:49.630Z,1008.59
2018-12-11T08:23:49.645Z,1008.53
2018-12-11T08:24:49.609Z,1008.61
2018-12-11T08:25:49.598Z,1008.59
2018-12-11T08:26:49.606Z,1008.61
2018-12-11T08:27:49.576Z,1008.61
2018-12-11T08:28:49.566Z,1008.57
2018-12-11T08:29:49.559Z,1008.59
2018-12-11T08:30:49.542Z,1008.56
2018-12-11T08:31:49.551Z,1008.61
2018-12-11T08:32:49.518Z,1008.63
2018-12-11T08:33:49.509Z,1008.61
2018-12-11T08:34:49.497Z,1008.60
2018-12-11T08:35:49.513Z,1008.66
2018-12-11T08:36:49.478Z,1008.68
2018-12-11T08:37:49.511Z,1008.64
2018-12-11T08:38:49.453Z,1008.70
2018-12-11T08:39:49.443Z,1008.69
2018-12-11T08:40:49.434Z,1008.63
2018-12-11T08:41:49.428Z,1008.64
2018-12-11T08:42:49.409Z,1008.69
2018-12-11T08:43:49.429Z,1008.74
2018-12-11T08:44:51.372Z,1008.71
2018-12-11T08:45:49.375Z,1008.66
2018-12-11T08:46:49.365Z,1008.72
2018-12-11T08:47:49.357Z,1008.68
2018-12-11T08:48:49.356Z,1008.68
2018-12-11T08:49:49.351Z,1008.65
2018-12-11T08:50:49.319Z,1008.73
2018-12-11T08:51:49.317Z,1008.76
2018-12-11T08:52:49.317Z,1008.82
2018-12-11T08:53:49.286Z,1008.79
2018-12-11T08:54:49.301Z,1008.77
2018-12-11T08:55:49.265Z,1008.81
2018-12-11T08:56:49.259Z,1008.81
2018-12-11T08:57:49.243Z,1008.77
2018-12-11T08:58:49.230Z,1008.80
2018-12-11T08:59:49.260Z,1008.81
2018-12-11T09:00:49.214Z,1008.80
2018-12-11T09:01:49.199Z,1008.78
2018-12-11T09:02:49.188Z,1008.85
2018-12-11T09:03:49.174Z,1008.92
2018-12-11T09:04:49.166Z,1008.92
2018-12-11T09:05:49.173Z,1008.93
2018-12-11T09:06:49.183Z,1008.93
2018-12-11T09:07:49.131Z,1008.93
2018-12-11T09:08:49.120Z,1008.85
2018-12-11T09:09:49.108Z,1008.93
2018-12-11T09:10:49.098Z,1009.02
2018-12-11T09:11:49.090Z,1008.91
2018-12-11T09:12:49.159Z,1008.92
2018-12-11T09:13:49.072Z,1008.97
2018-12-11T09:14:49.062Z,1008.90
2018-12-11T09:15:49.042Z,1008.94
2018-12-11T09:16:49.049Z,1008.99
2018-12-11T09:17:49.019Z,1008.94
2018-12-11T09:18:49.012Z,1008.96
2018-12-11T09:19:48.998Z,1008.97
2018-12-11T09:20:48.997Z,1009.04
2018-12-11T09:21:48.993Z,1009.03
2018-12-11T09:22:48.968Z,1009.10
2018-12-11T09:23:48.952Z,1009.08
2018-12-11T09:24:48.944Z,1009.14
2018-12-11T09:25:48.929Z,1009.08
2018-12-11T09:28:19.476Z,1009.16
2018-12-11T09:29:03.089Z,1009.08
2018-12-11T09:30:03.080Z,1009.14
2018-12-11T09:31:03.068Z,1009.16
2018-12-11T09:32:03.053Z,1009.17
2018-12-11T09:33:03.049Z,1009.16
2018-12-11T09:34:03.051Z,1009.24
2018-12-11T09:35:03.021Z,1009.12
2018-12-11T09:36:03.011Z,1009.20
2018-12-11T09:37:03.007Z,1009.18
2018-12-11T09:38:02.988Z,1009.18
2018-12-11T09:39:03.021Z,1009.20
2018-12-11T09:40:02.965Z,1009.16
2018-12-11T09:41:02.969Z,1009.22
2018-12-11T09:42:07.176Z,1009.17
2018-12-11T09:43:02.935Z,1009.19
2018-12-11T09:44:02.920Z,1009.13
2018-12-11T09:45:02.940Z,1009.12
2018-12-11T09:46:02.904Z,1009.15
2018-12-11T09:47:02.889Z,1009.20
2018-12-11T09:48:02.884Z,1009.21
2018-12-11T09:49:02.876Z,1009.16
2018-12-11T09:50:02.860Z,1009.14
2018-12-11T09:51:02.856Z,1009.12
2018-12-11T09:52:02.833Z,1009.13
2018-12-11T09:53:02.822Z,1009.16
2018-12-11T09:54:02.810Z,1009.17
2018-12-11T09:55:02.799Z,1009.13
2018-12-11T09:56:02.817Z,1009.14
2018-12-11T09:57:02.775Z,1009.15
2018-12-11T09:58:02.765Z,1009.17
2018-12-11T09:59:02.755Z,1009.12
2018-12-11T10:00:02.758Z,1009.17
2018-12-11T10:01:02.732Z,1009.15
2018-12-11T10:02:02.744Z,1009.17
2018-12-11T10:03:02.714Z,1009.16
2018-12-11T10:04:02.703Z,1009.19
2018-12-11T10:05:02.687Z,1009.17
2018-12-11T10:06:02.678Z,1009.19
2018-12-11T10:07:02.662Z,1009.23
2018-12-11T10:08:02.677Z,1009.22
2018-12-11T10:09:02.643Z,1009.26
2018-12-11T10:10:02.638Z,1009.31
2018-12-11T10:11:02.620Z,1009.26
2018-12-11T10:12:02.609Z,1009.25
2018-12-11T10:13:02.596Z,1009.22
2018-12-11T10:14:02.618Z,1009.19
2018-12-11T10:15:02.577Z,1009.18
2018-12-11T10:16:02.579Z,1009.25
2018-12-11T10:17:02.554Z,1009.26
2018-12-11T10:18:02.544Z,1009.25
2018-12-11T10:19:02.538Z,1009.26
2018-12-11T10:20:02.553Z,1009.21
2018-12-11T10:21:02.509Z,1009.22
2018-12-11T10:22:02.502Z,1009.28
2018-12-11T10:23:02.487Z,1009.27
2018-12-11T10:24:02.484Z,1009.31
2018-12-11T10:25:02.465Z,1009.27
2018-12-11T10:26:02.471Z,1009.30
2018-12-11T10:27:02.444Z,1009.28
2018-12-11T10:28:02.442Z,1009.25
2018-12-11T10:29:02.421Z,1009.33
2018-12-11T10:30:02.414Z,1009.29
2018-12-11T10:31:02.412Z,1009.27
2018-12-11T10:32:02.399Z,1009.30
2018-12-11T10:33:02.376Z,1009.33
2018-12-11T10:34:02.370Z,1009.29
2018-12-11T10:35:02.357Z,1009.35
2018-12-11T10:36:02.347Z,1009.32
2018-12-11T10:37:02.388Z,1009.34
2018-12-11T10:38:02.324Z,1009.30
2018-12-11T10:39:02.310Z,1009.37
2018-12-11T10:40:02.311Z,1009.32
2018-12-11T10:41:02.297Z,1009.32
2018-12-11T10:42:02.293Z,1009.32
2018-12-11T10:43:02.296Z,1009.33
2018-12-11T10:44:02.256Z,1009.30
2018-12-11T10:45:02.245Z,1009.36
2018-12-11T10:46:02.232Z,1009.30
2018-12-11T10:47:02.240Z,1009.31
2018-12-11T10:48:02.212Z,1009.31
2018-12-11T10:49:02.234Z,1009.31
2018-12-11T10:50:02.187Z,1009.30
2018-12-11T10:51:02.179Z,1009.28
2018-12-11T10:52:02.164Z,1009.32
2018-12-11T10:53:02.167Z,1009.28
2018-12-11T10:54:02.178Z,1009.32
2018-12-11T10:55:02.153Z,1009.31
2018-12-11T10:56:02.145Z,1009.31
2018-12-11T10:57:02.116Z,1009.31
2018-12-11T10:58:02.118Z,1009.33
2018-12-11T10:59:02.115Z,1009.39
2018-12-11T11:00:02.094Z,1009.28
2018-12-11T11:01:02.097Z,1009.32
2018-12-11T11:02:02.094Z,1009.39
2018-12-11T11:03:02.057Z,1009.26
2018-12-11T11:04:02.043Z,1009.32
2018-12-11T11:05:02.052Z,1009.33
2018-12-11T11:06:02.054Z,1009.38
2018-12-11T11:07:02.038Z,1009.31
2018-12-11T11:08:01.993Z,1009.27
2018-12-11T11:09:01.981Z,1009.33
2018-12-11T11:10:02.039Z,1009.34
2018-12-11T11:11:01.958Z,1009.37
2018-12-11T11:12:02.034Z,1009.37
2018-12-11T11:13:01.968Z,1009.41
2018-12-11T11:14:01.949Z,1009.39
2018-12-11T11:15:01.953Z,1009.36
2018-12-11T11:16:01.909Z,1009.38
2018-12-11T11:17:01.931Z,1009.42
2018-12-11T11:18:01.903Z,1009.41
2018-12-11T11:19:01.912Z,1009.45
2018-12-11T11:20:01.868Z,1009.35
2018-12-11T11:21:01.856Z,1009.40
2018-12-11T11:22:01.838Z,1009.36
2018-12-11T11:23:01.863Z,1009.39
2018-12-11T11:24:01.856Z,1009.42
2018-12-11T11:25:01.808Z,1009.41
2018-12-11T11:26:01.795Z,1009.38
2018-12-11T11:27:01.792Z,1009.39
2018-12-11T11:28:01.775Z,1009.40
2018-12-11T11:29:01.776Z,1009.39
2018-12-11T11:30:01.798Z,1009.38
2018-12-11T11:31:01.736Z,1009.39
2018-12-11T11:32:01.725Z,1009.29
2018-12-11T11:33:01.731Z,1009.30
2018-12-11T11:34:01.701Z,1009.33
2018-12-11T11:35:01.691Z,1009.32
2018-12-11T11:36:01.691Z,1009.32
2018-12-11T11:37:01.671Z,1009.30
2018-12-11T11:38:01.684Z,1009.33
2018-12-11T11:39:01.676Z,1009.32
2018-12-11T11:40:01.636Z,1009.33
2018-12-11T11:41:01.744Z,1009.38
2018-12-11T11:42:01.615Z,1009.31
2018-12-11T11:43:01.605Z,1009.36
2018-12-11T11:44:01.591Z,1009.37
2018-12-11T11:45:01.613Z,1009.40
2018-12-11T11:46:01.569Z,1009.36
2018-12-11T11:47:01.570Z,1009.37
2018-12-11T11:48:01.561Z,1009.38
2018-12-11T11:49:01.533Z,1009.42
2018-12-11T11:50:01.526Z,1009.36
2018-12-11T11:51:01.525Z,1009.38
2018-12-11T11:52:01.509Z,1009.36
2018-12-11T11:53:01.505Z,1009.41
2018-12-11T11:54:01.477Z,1009.43
2018-12-11T11:55:01.465Z,1009.40
2018-12-11T11:56:01.455Z,1009.44
2018-12-11T11:57:01.445Z,1009.47
2018-12-11T11:58:01.481Z,1009.52
2018-12-11T11:59:01.422Z,1009.44
2018-12-11T12:00:01.410Z,1009.53
2018-12-11T12:01:01.401Z,1009.39
2018-12-11T12:02:01.387Z,1009.50
2018-12-11T12:03:01.376Z,1009.53
2018-12-11T12:04:01.415Z,1009.49
2018-12-11T12:05:01.362Z,1009.50
2018-12-11T12:06:01.350Z,1009.56
2018-12-11T12:07:01.376Z,1009.50
2018-12-11T12:08:01.325Z,1009.55
2018-12-11T12:09:01.312Z,1009.49
2018-12-11T12:10:01.317Z,1009.58
2018-12-11T12:11:01.293Z,1009.57
2018-12-11T12:12:01.306Z,1009.55
2018-12-11T12:13:01.286Z,1009.54
2018-12-11T12:14:01.272Z,1009.60
2018-12-11T12:15:01.284Z,1009.65
2018-12-11T12:16:01.252Z,1009.67
2018-12-11T12:17:01.251Z,1009.61
2018-12-11T12:18:01.225Z,1009.62
2018-12-11T12:19:01.202Z,1009.69
2018-12-11T12:20:01.190Z,1009.66
2018-12-11T12:21:01.187Z,1009.72
2018-12-11T12:22:01.169Z,1009.72
2018-12-11T12:23:01.201Z,1009.76
2018-12-11T12:24:01.143Z,1009.73
2018-12-11T12:25:01.132Z,1009.73
2018-12-11T12:26:01.125Z,1009.66
2018-12-11T12:27:01.106Z,1009.70
2018-12-11T12:28:01.100Z,1009.67
2018-12-11T12:29:01.101Z,1009.68
2018-12-11T12:30:01.077Z,1009.70
2018-12-11T12:31:01.085Z,1009.65
2018-12-11T12:32:01.059Z,1009.70
2018-12-11T12:33:01.050Z,1009.74
2018-12-11T12:34:01.056Z,1009.67
2018-12-11T12:35:01.018Z,1009.68
2018-12-11T12:36:01.013Z,1009.61
2018-12-11T12:37:00.999Z,1009.69
2018-12-11T12:38:01.008Z,1009.66
2018-12-11T12:39:00.992Z,1009.68
2018-12-11T12:40:00.979Z,1009.67
2018-12-11T12:41:00.953Z,1009.62
2018-12-11T12:42:00.942Z,1009.65
2018-12-11T12:43:00.948Z,1009.68
2018-12-11T12:44:00.919Z,1009.68
2018-12-11T12:45:00.956Z,1009.63
2018-12-11T12:46:00.901Z,1009.65
2018-12-11T12:47:00.883Z,1009.72
2018-12-11T12:48:00.875Z,1009.72
2018-12-11T12:49:00.879Z,1009.70
2018-12-11T12:50:00.852Z,1009.69
2018-12-11T12:51:00.840Z,1009.70